Time;durP1;ratioP1;P1;durP2;ratioP2;P2;SDS_P1;SDS_P2;PMS_P1;PMS_P2;Temp;Humidity;BMP_temperature;BMP_pressure;BME280_temperature;BME280_humidity;BME280_pressure;Samples;Min_cycle;Max_cycle;Signal;HPM_P1;HPM_P2
2023/12/18 00:01:54;;;;;;;13.30;8.70;;;;;;;;;;5074009;28;20456;-86
2023/12/18 00:04:22;;;;;;;13.90;8.63;;;;;;;;;;5072748;28;20495;-86
2023/12/18 00:06:48;;;;;;;14.87;7.83;;;;;;;;;;5077771;28;21056;-86
2023/12/18 00:09:15;;;;;;;12.90;7.70;;;;;;;;;;5078915;28;20499;-86
2023/12/18 00:11:41;;;;;;;14.13;8.83;;;;;;;;;;5070987;28;20504;-86
2023/12/18 00:14:07;;;;;;;14.17;8.33;;;;;;;;;;5075762;28;20511;-86
2023/12/18 00:16:34;;;;;;;12.60;8.70;;;;;;;;;;5061311;28;20472;-86
2023/12/18 00:19:00;;;;;;;10.70;6.97;;;;;;;;;;5077313;28;20494;-85
2023/12/18 00:21:28;;;;;;;10.87;7.00;;;;;;;;;;5076132;28;20464;-85
2023/12/18 00:23:55;;;;;;;11.80;7.80;;;;;;;;;;5062977;28;20476;-86
2023/12/18 00:26:21;;;;;;;10.73;7.57;;;;;;;;;;5076730;28;20521;-85
2023/12/18 00:28:47;;;;;;;12.60;8.33;;;;;;;;;;5072708;28;21052;-86
2023/12/18 00:31:14;;;;;;;15.70;7.70;;;;;;;;;;5071695;28;20487;-85
2023/12/18 00:33:40;;;;;;;10.77;8.50;;;;;;;;;;5077217;28;20530;-85
2023/12/18 00:36:07;;;;;;;12.10;9.00;;;;;;;;;;5075325;28;21062;-85
2023/12/18 00:38:35;;;;;;;15.63;8.50;;;;;;;;;;5076767;28;20456;-85
2023/12/18 00:41:01;;;;;;;16.30;8.63;;;;;;;;;;5078846;28;20507;-86
2023/12/18 00:43:27;;;;;;;10.00;8.00;;;;;;;;;;5076758;28;20468;-86
2023/12/18 00:45:54;;;;;;;12.97;7.80;;;;;;;;;;5075595;28;20583;-86
2023/12/18 00:48:20;;;;;;;16.10;8.27;;;;;;;;;;5073787;28;20528;-85
2023/12/18 00:50:46;;;;;;;14.10;8.60;;;;;;;;;;5082092;28;20471;-86
2023/12/18 00:53:16;;;;;;;11.17;8.00;;;;;;;;;;5081065;28;20539;-86
2023/12/18 00:55:43;;;;;;;19.03;9.37;;;;;;;;;;5081519;28;20523;-86
2023/12/18 00:58:10;;;;;;;14.10;8.30;;;;;;;;;;5081962;28;20546;-85
2023/12/18 01:00:36;;;;;;;16.20;9.70;;;;;;;;;;5079659;28;20478;-86
2023/12/18 01:03:03;;;;;;;13.33;8.60;;;;;;;;;;5080074;28;20542;-85
2023/12/18 01:05:29;;;;;;;12.77;9.27;;;;;;;;;;5077167;28;20530;-85
2023/12/18 01:07:56;;;;;;;14.00;9.27;;;;;;;;;;5079503;28;20487;-86
2023/12/18 01:10:23;;;;;;;12.90;8.13;;;;;;;;;;5082234;28;20463;-86
2023/12/18 01:12:50;;;;;;;14.50;10.00;;;;;;;;;;5078389;28;20452;-86
2023/12/18 01:15:17;;;;;;;14.47;10.73;;;;;;;;;;5077808;28;20490;-86
2023/12/18 01:17:43;;;;;;;16.83;10.33;;;;;;;;;;5074946;28;20562;-86
2023/12/18 01:20:10;;;;;;;21.83;10.73;;;;;;;;;;5082280;28;20479;-86
2023/12/18 01:22:36;;;;;;;14.00;10.90;;;;;;;;;;5079561;28;20527;-86
2023/12/18 01:25:03;;;;;;;19.43;10.57;;;;;;;;;;5075732;28;20476;-86
2023/12/18 01:27:29;;;;;;;16.57;10.43;;;;;;;;;;5078244;28;20519;-86
2023/12/18 01:29:57;;;;;;;14.37;10.57;;;;;;;;;;5078676;28;20507;-86
2023/12/18 01:32:24;;;;;;;21.03;10.97;;;;;;;;;;5081260;28;20523;-86
2023/12/18 01:34:50;;;;;;;15.03;11.40;;;;;;;;;;5071379;28;20482;-86
2023/12/18 01:37:16;;;;;;;18.50;11.60;;;;;;;;;;5079405;28;21026;-86
2023/12/18 01:39:43;;;;;;;15.70;11.40;;;;;;;;;;5073922;28;20456;-85
2023/12/18 01:42:09;;;;;;;18.53;12.87;;;;;;;;;;5081529;28;20467;-85
2023/12/18 01:44:36;;;;;;;18.27;11.63;;;;;;;;;;5080465;28;20456;-85
2023/12/18 01:47:04;;;;;;;18.47;13.77;;;;;;;;;;5070894;28;20503;-85
2023/12/18 01:49:31;;;;;;;17.17;12.07;;;;;;;;;;5079456;28;20524;-85
2023/12/18 01:51:57;;;;;;;14.77;11.97;;;;;;;;;;5080391;28;21119;-85
2023/12/18 01:54:24;;;;;;;22.30;12.30;;;;;;;;;;5077857;28;20467;-86
2023/12/18 01:56:53;;;;;;;20.70;12.57;;;;;;;;;;5080340;28;20507;-87
2023/12/18 01:59:21;;;;;;;21.83;12.63;;;;;;;;;;5079951;28;20524;-86
2023/12/18 02:01:47;;;;;;;18.47;12.40;;;;;;;;;;5076414;28;20578;-86
2023/12/18 02:04:15;;;;;;;14.57;12.07;;;;;;;;;;5070421;28;20459;-86
2023/12/18 02:06:42;;;;;;;20.17;12.63;;;;;;;;;;5080531;28;20495;-84
2023/12/18 02:09:09;;;;;;;17.57;13.77;;;;;;;;;;5078693;28;21039;-86
2023/12/18 02:11:36;;;;;;;25.20;13.60;;;;;;;;;;5080519;28;20448;-84
2023/12/18 02:14:03;;;;;;;17.83;14.43;;;;;;;;;;5080192;28;20447;-85
2023/12/18 02:16:29;;;;;;;19.27;12.80;;;;;;;;;;5077686;28;20505;-85
2023/12/18 02:18:56;;;;;;;18.13;14.10;;;;;;;;;;5079019;28;20515;-85
2023/12/18 02:21:23;;;;;;;18.90;13.83;;;;;;;;;;5080337;28;20531;-86
2023/12/18 02:23:52;;;;;;;18.63;13.73;;;;;;;;;;5071724;28;20479;-85
2023/12/18 02:26:18;;;;;;;15.70;12.60;;;;;;;;;;5079338;28;20503;-85
2023/12/18 02:28:45;;;;;;;27.40;12.73;;;;;;;;;;5078364;28;21353;-85
2023/12/18 02:31:13;;;;;;;20.70;13.90;;;;;;;;;;5075553;28;21004;-85
2023/12/18 02:33:40;;;;;;;19.83;14.00;;;;;;;;;;5077816;28;20487;-85
2023/12/18 02:36:07;;;;;;;18.73;12.80;;;;;;;;;;5080863;28;20444;-85
2023/12/18 02:38:33;;;;;;;21.87;13.57;;;;;;;;;;5077871;28;20540;-85
2023/12/18 02:41:01;;;;;;;21.13;14.77;;;;;;;;;;5074791;28;20487;-85
2023/12/18 02:43:27;;;;;;;22.13;15.03;;;;;;;;;;5074451;28;20512;-85
2023/12/18 02:45:54;;;;;;;17.87;13.80;;;;;;;;;;5073996;28;20582;-84
2023/12/18 02:48:20;;;;;;;18.43;14.30;;;;;;;;;;5074926;28;20483;-85
2023/12/18 02:50:47;;;;;;;22.40;14.87;;;;;;;;;;5072751;28;20513;-84
2023/12/18 02:53:14;;;;;;;29.07;14.87;;;;;;;;;;5077876;28;20516;-85
2023/12/18 02:55:41;;;;;;;21.20;14.17;;;;;;;;;;5078182;28;20551;-85
2023/12/18 02:58:09;;;;;;;28.43;14.57;;;;;;;;;;5078850;28;20540;-86
2023/12/18 03:00:35;;;;;;;21.57;15.00;;;;;;;;;;5071117;28;20495;-85
2023/12/18 03:03:02;;;;;;;19.57;13.90;;;;;;;;;;5075791;28;20474;-85
2023/12/18 03:05:28;;;;;;;23.43;13.93;;;;;;;;;;5077826;28;20507;-85
2023/12/18 03:07:54;;;;;;;19.87;14.30;;;;;;;;;;5079004;28;20508;-83
2023/12/18 03:10:21;;;;;;;28.10;15.27;;;;;;;;;;5070858;28;20488;-85
2023/12/18 03:12:47;;;;;;;18.80;11.83;;;;;;;;;;5078609;28;20516;-84
2023/12/18 03:15:15;;;;;;;18.67;12.30;;;;;;;;;;5077264;28;20476;-86
2023/12/18 03:17:41;;;;;;;18.07;12.87;;;;;;;;;;5076556;28;20526;-85
2023/12/18 03:20:09;;;;;;;23.13;13.60;;;;;;;;;;5068841;28;20453;-85
2023/12/18 03:22:35;;;;;;;23.33;14.40;;;;;;;;;;5076983;28;20460;-85
2023/12/18 03:25:03;;;;;;;18.27;13.67;;;;;;;;;;5076958;28;20460;-86
2023/12/18 03:27:29;;;;;;;21.20;13.90;;;;;;;;;;5077924;28;20456;-85
2023/12/18 03:29:56;;;;;;;21.13;13.77;;;;;;;;;;5078454;28;20520;-85
2023/12/18 03:32:23;;;;;;;21.00;13.27;;;;;;;;;;5079725;28;20549;-85
2023/12/18 03:34:50;;;;;;;19.30;12.60;;;;;;;;;;5078673;28;20464;-85
2023/12/18 03:37:16;;;;;;;21.37;13.97;;;;;;;;;;5073116;28;20639;-85
2023/12/18 03:39:43;;;;;;;23.27;14.33;;;;;;;;;;5076380;28;20486;-86
2023/12/18 03:42:09;;;;;;;20.20;13.93;;;;;;;;;;5071625;28;20467;-86
2023/12/18 03:44:36;;;;;;;25.30;14.73;;;;;;;;;;5075831;28;20456;-86
2023/12/18 03:47:03;;;;;;;23.53;14.20;;;;;;;;;;5078750;28;20563;-86
2023/12/18 03:49:30;;;;;;;20.63;13.97;;;;;;;;;;5077837;28;20455;-85
2023/12/18 03:51:57;;;;;;;19.63;13.80;;;;;;;;;;5078047;28;20540;-85
2023/12/18 03:54:23;;;;;;;18.93;13.60;;;;;;;;;;5073775;28;20483;-85
2023/12/18 03:56:49;;;;;;;23.07;14.77;;;;;;;;;;5072267;28;20480;-86
2023/12/18 03:59:16;;;;;;;20.40;12.77;;;;;;;;;;5071365;28;21369;-87
2023/12/18 04:01:42;;;;;;;20.77;14.77;;;;;;;;;;5075016;28;20524;-86
2023/12/18 04:04:10;;;;;;;24.17;14.37;;;;;;;;;;5078154;28;20507;-86
2023/12/18 04:06:38;;;;;;;19.30;13.60;;;;;;;;;;5076887;28;20459;-86
2023/12/18 04:09:04;;;;;;;25.30;14.60;;;;;;;;;;5078579;28;20495;-86
2023/12/18 04:11:30;;;;;;;20.17;13.33;;;;;;;;;;5076110;28;20484;-85
2023/12/18 04:13:57;;;;;;;25.70;13.33;;;;;;;;;;5076318;28;20520;-85
2023/12/18 04:16:23;;;;;;;20.47;14.17;;;;;;;;;;5070148;28;20891;-86
2023/12/18 04:18:50;;;;;;;22.37;14.70;;;;;;;;;;5075123;28;20499;-85
2023/12/18 04:21:17;;;;;;;23.83;14.60;;;;;;;;;;5078491;28;20452;-86
2023/12/18 04:23:44;;;;;;;18.07;14.10;;;;;;;;;;5078591;28;20840;-86
2023/12/18 04:26:10;;;;;;;17.07;12.63;;;;;;;;;;5078157;28;20487;-86
2023/12/18 04:28:36;;;;;;;28.07;15.03;;;;;;;;;;5081704;28;21169;-85
2023/12/18 04:31:03;;;;;;;25.23;15.50;;;;;;;;;;5078236;28;20697;-85
2023/12/18 04:33:29;;;;;;;26.20;13.27;;;;;;;;;;5079141;28;20594;-85
2023/12/18 04:35:56;;;;;;;29.90;14.60;;;;;;;;;;5081660;28;20476;-85
2023/12/18 04:38:22;;;;;;;23.07;13.67;;;;;;;;;;5080350;28;20518;-85
2023/12/18 04:40:50;;;;;;;29.87;15.03;;;;;;;;;;5069613;28;20486;-86
2023/12/18 04:43:16;;;;;;;25.33;14.30;;;;;;;;;;5080559;28;20515;-86
2023/12/18 04:45:43;;;;;;;24.33;14.63;;;;;;;;;;5082574;28;20491;-86
2023/12/18 04:48:09;;;;;;;21.73;14.30;;;;;;;;;;5084696;28;20448;-86
2023/12/18 04:50:35;;;;;;;20.80;13.63;;;;;;;;;;5080968;28;20528;-85
2023/12/18 04:53:02;;;;;;;24.47;13.97;;;;;;;;;;5080174;28;20467;-85
2023/12/18 04:55:28;;;;;;;22.93;13.97;;;;;;;;;;5083951;28;20467;-86
2023/12/18 04:57:57;;;;;;;18.70;12.10;;;;;;;;;;5085276;28;20508;-86
2023/12/18 05:00:23;;;;;;;21.13;13.30;;;;;;;;;;5080547;28;20452;-86
2023/12/18 05:02:49;;;;;;;21.40;14.47;;;;;;;;;;5080906;28;20479;-85
2023/12/18 05:05:15;;;;;;;19.73;13.63;;;;;;;;;;5079613;28;20453;-84
2023/12/18 05:07:41;;;;;;;26.20;14.50;;;;;;;;;;5081053;28;20675;-84
2023/12/18 05:10:08;;;;;;;21.37;14.27;;;;;;;;;;5077660;28;20483;-85
2023/12/18 05:12:34;;;;;;;21.53;16.13;;;;;;;;;;5079437;28;20907;-85
2023/12/18 05:15:02;;;;;;;22.67;13.23;;;;;;;;;;5081272;28;20487;-85
2023/12/18 05:17:29;;;;;;;24.80;15.20;;;;;;;;;;5070573;28;20475;-85
2023/12/18 05:19:55;;;;;;;27.20;13.60;;;;;;;;;;5078245;28;20499;-86
2023/12/18 05:22:22;;;;;;;25.90;15.63;;;;;;;;;;5079974;28;20601;-85
2023/12/18 05:24:48;;;;;;;25.27;12.93;;;;;;;;;;5073892;28;21197;-85
2023/12/18 05:27:16;;;;;;;19.47;14.37;;;;;;;;;;5077470;28;20456;-85
2023/12/18 05:29:42;;;;;;;22.53;14.20;;;;;;;;;;5070472;28;20457;-85
2023/12/18 05:32:10;;;;;;;26.90;14.70;;;;;;;;;;5075186;28;20464;-85
2023/12/18 05:34:36;;;;;;;19.50;14.23;;;;;;;;;;5075308;28;20448;-85
2023/12/18 05:37:03;;;;;;;23.43;14.17;;;;;;;;;;5081450;28;20523;-84
2023/12/18 05:39:29;;;;;;;22.23;14.43;;;;;;;;;;5081795;28;21032;-84
2023/12/18 05:41:56;;;;;;;23.57;15.17;;;;;;;;;;5077718;28;20480;-86
2023/12/18 05:44:22;;;;;;;22.20;14.47;;;;;;;;;;5079964;28;20482;-87
2023/12/18 05:46:48;;;;;;;29.10;18.10;;;;;;;;;;5071689;28;20571;-85
2023/12/18 05:49:16;;;;;;;30.23;17.97;;;;;;;;;;5074315;28;21012;-85
2023/12/18 05:51:43;;;;;;;25.60;17.17;;;;;;;;;;5078901;28;20543;-84
2023/12/18 05:54:09;;;;;;;24.73;16.73;;;;;;;;;;5081820;28;20520;-84
2023/12/18 05:56:35;;;;;;;27.63;16.30;;;;;;;;;;5081026;28;20520;-84
2023/12/18 05:59:02;;;;;;;28.37;17.90;;;;;;;;;;5081863;28;20566;-84
2023/12/18 06:01:28;;;;;;;24.13;15.60;;;;;;;;;;5074690;28;21182;-84
2023/12/18 06:03:55;;;;;;;29.53;15.87;;;;;;;;;;5076686;28;20471;-83
2023/12/18 06:06:23;;;;;;;26.27;16.60;;;;;;;;;;5080130;28;20543;-84
2023/12/18 06:08:49;;;;;;;33.53;19.30;;;;;;;;;;5069986;28;20481;-86
2023/12/18 06:11:16;;;;;;;23.00;16.00;;;;;;;;;;5073698;28;20551;-86
2023/12/18 06:13:42;;;;;;;28.50;16.70;;;;;;;;;;5073356;28;20453;-92
2023/12/18 06:16:09;;;;;;;30.70;18.80;;;;;;;;;;5079661;28;20498;-93
2023/12/18 06:18:35;;;;;;;32.97;18.40;;;;;;;;;;5080586;28;20512;-92
2023/12/18 06:21:02;;;;;;;26.80;16.90;;;;;;;;;;5080160;28;20484;-83
2023/12/18 06:23:30;;;;;;;27.17;17.83;;;;;;;;;;5076959;28;20478;-83
2023/12/18 06:25:57;;;;;;;32.20;18.80;;;;;;;;;;5076004;28;20539;-84
2023/12/18 06:28:23;;;;;;;28.63;16.43;;;;;;;;;;5071881;28;20473;-83
2023/12/18 06:30:49;;;;;;;29.50;18.23;;;;;;;;;;5071718;28;20532;-85
2023/12/18 06:33:16;;;;;;;25.20;18.40;;;;;;;;;;5075456;28;20494;-83
2023/12/18 06:35:43;;;;;;;26.57;16.83;;;;;;;;;;5070595;28;20520;-84
2023/12/18 06:38:09;;;;;;;29.03;17.50;;;;;;;;;;5070356;28;20500;-83
2023/12/18 06:40:37;;;;;;;27.53;17.93;;;;;;;;;;5077816;28;20548;-84
2023/12/18 06:43:04;;;;;;;27.37;18.43;;;;;;;;;;5069772;28;20533;-83
2023/12/18 06:45:30;;;;;;;28.10;18.20;;;;;;;;;;5073196;28;20614;-84
2023/12/18 06:47:57;;;;;;;27.43;18.10;;;;;;;;;;5068665;28;20480;-83
2023/12/18 06:50:23;;;;;;;30.00;18.37;;;;;;;;;;5066111;28;20455;-84
2023/12/18 06:52:50;;;;;;;32.33;17.00;;;;;;;;;;5072620;28;20444;-85
2023/12/18 06:55:17;;;;;;;26.33;17.20;;;;;;;;;;5078702;28;20860;-86
2023/12/18 06:57:45;;;;;;;31.23;18.70;;;;;;;;;;5071225;28;20904;-86
2023/12/18 07:00:11;;;;;;;43.40;18.83;;;;;;;;;;5074217;28;20539;-84
2023/12/18 07:02:38;;;;;;;29.93;18.63;;;;;;;;;;5077785;28;20460;-85
2023/12/18 07:05:04;;;;;;;32.23;18.97;;;;;;;;;;5074853;28;20488;-86
2023/12/18 07:07:31;;;;;;;30.17;19.50;;;;;;;;;;5075780;28;20519;-87
2023/12/18 07:09:57;;;;;;;27.07;17.97;;;;;;;;;;5070677;28;20485;-86
2023/12/18 07:12:24;;;;;;;30.23;19.30;;;;;;;;;;5071394;28;20934;-87
2023/12/18 07:14:52;;;;;;;31.13;19.80;;;;;;;;;;5070722;28;20484;-86
2023/12/18 07:17:18;;;;;;;38.47;19.60;;;;;;;;;;5075750;28;20456;-89
2023/12/18 07:19:44;;;;;;;33.90;18.87;;;;;;;;;;5070230;28;20527;-88
2023/12/18 07:22:11;;;;;;;31.37;19.50;;;;;;;;;;5080015;28;21048;-87
2023/12/18 07:24:37;;;;;;;30.37;20.40;;;;;;;;;;5073211;28;20515;-88
2023/12/18 07:27:04;;;;;;;33.67;20.63;;;;;;;;;;5073726;28;20456;-86
2023/12/18 07:29:30;;;;;;;35.47;19.33;;;;;;;;;;5068519;28;20473;-84
2023/12/18 07:31:58;;;;;;;35.97;18.10;;;;;;;;;;5071314;28;20845;-88
2023/12/18 07:34:24;;;;;;;29.83;18.40;;;;;;;;;;5069431;28;20518;-88
2023/12/18 07:36:51;;;;;;;31.00;18.00;;;;;;;;;;5071081;28;20564;-87
2023/12/18 07:39:17;;;;;;;28.23;19.17;;;;;;;;;;5062847;28;20557;-87
2023/12/18 07:41:44;;;;;;;31.90;19.27;;;;;;;;;;5077210;28;20512;-85
2023/12/18 07:44:10;;;;;;;38.10;20.70;;;;;;;;;;5075122;28;20484;-87
2023/12/18 07:46:37;;;;;;;32.93;19.97;;;;;;;;;;5071290;28;20464;-88
2023/12/18 07:49:05;;;;;;;32.97;20.13;;;;;;;;;;5076698;28;20450;-87
2023/12/18 07:51:31;;;;;;;38.33;19.93;;;;;;;;;;5072900;28;20475;-87
2023/12/18 07:53:58;;;;;;;33.20;19.23;;;;;;;;;;5070205;28;20550;-87
2023/12/18 07:56:24;;;;;;;32.70;19.37;;;;;;;;;;5066482;28;20533;-86
2023/12/18 07:58:51;;;;;;;33.23;19.47;;;;;;;;;;5069983;28;21014;-88
2023/12/18 08:01:18;;;;;;;40.83;19.90;;;;;;;;;;5074455;28;20462;-87
2023/12/18 08:03:44;;;;;;;32.67;18.37;;;;;;;;;;5068629;28;20474;-85
2023/12/18 08:06:12;;;;;;;30.47;20.33;;;;;;;;;;5074948;28;20450;-86
2023/12/18 08:08:38;;;;;;;35.43;19.43;;;;;;;;;;5072397;28;20471;-88
2023/12/18 08:11:05;;;;;;;30.50;18.80;;;;;;;;;;5076500;28;20451;-86
2023/12/18 08:13:37;;;;;;;35.83;19.47;;;;;;;;;;5070235;28;20506;-89
2023/12/18 08:16:04;;;;;;;32.73;18.77;;;;;;;;;;5071795;28;20467;-87
2023/12/18 08:18:31;;;;;;;31.53;19.03;;;;;;;;;;5075808;28;20471;-88
2023/12/18 08:20:57;;;;;;;34.83;20.40;;;;;;;;;;5073271;28;20444;-87
2023/12/18 08:23:26;;;;;;;32.00;19.60;;;;;;;;;;5073163;28;20460;-86
2023/12/18 08:25:53;;;;;;;29.30;18.67;;;;;;;;;;5072971;28;20482;-86
2023/12/18 08:28:19;;;;;;;32.20;19.30;;;;;;;;;;5071686;28;20455;-84
2023/12/18 08:30:46;;;;;;;33.30;18.87;;;;;;;;;;5068947;28;20472;-87
2023/12/18 08:33:12;;;;;;;31.70;19.40;;;;;;;;;;5070903;28;20478;-82
2023/12/18 08:35:39;;;;;;;28.60;18.47;;;;;;;;;;5070877;28;20444;-84
2023/12/18 08:38:05;;;;;;;29.77;19.13;;;;;;;;;;5069332;28;20754;-87
2023/12/18 08:40:33;;;;;;;35.57;20.53;;;;;;;;;;5070927;28;20520;-82
2023/12/18 08:43:00;;;;;;;33.10;20.90;;;;;;;;;;5069887;28;20455;-83
2023/12/18 08:45:26;;;;;;;34.20;19.83;;;;;;;;;;5073212;28;20523;-84
2023/12/18 08:47:54;;;;;;;35.20;19.60;;;;;;;;;;5072311;28;20518;-83
2023/12/18 08:50:21;;;;;;;33.20;19.07;;;;;;;;;;5071503;28;20479;-83
2023/12/18 08:52:47;;;;;;;33.90;19.90;;;;;;;;;;5070015;28;20966;-86
2023/12/18 08:55:14;;;;;;;32.93;19.10;;;;;;;;;;5071079;28;20990;-84
2023/12/18 08:57:43;;;;;;;32.00;17.70;;;;;;;;;;5068253;28;20966;-83
2023/12/18 09:00:10;;;;;;;32.63;20.13;;;;;;;;;;5071487;28;20492;-80
2023/12/18 09:02:36;;;;;;;41.50;19.70;;;;;;;;;;5070574;28;20531;-80
2023/12/18 09:05:05;;;;;;;32.50;19.70;;;;;;;;;;5071697;28;20449;-81
2023/12/18 09:07:32;;;;;;;28.97;18.00;;;;;;;;;;5069549;28;20981;-81
2023/12/18 09:09:58;;;;;;;30.50;17.70;;;;;;;;;;5074557;28;20449;-80
2023/12/18 09:12:25;;;;;;;35.13;18.93;;;;;;;;;;5068865;28;20477;-82
2023/12/18 09:14:52;;;;;;;34.77;19.77;;;;;;;;;;5074004;28;20452;-81
2023/12/18 09:17:19;;;;;;;32.77;17.30;;;;;;;;;;5080880;28;21372;-81
2023/12/18 09:19:45;;;;;;;37.93;19.43;;;;;;;;;;5081208;28;20551;-83
2023/12/18 09:22:12;;;;;;;29.17;18.73;;;;;;;;;;5077176;28;20448;-82
2023/12/18 09:24:38;;;;;;;27.77;19.53;;;;;;;;;;5080786;28;20447;-81
2023/12/18 09:27:05;;;;;;;32.13;18.60;;;;;;;;;;5083086;28;20459;-83
2023/12/18 09:29:31;;;;;;;39.97;19.10;;;;;;;;;;5082292;28;20486;-82
2023/12/18 09:31:59;;;;;;;29.70;18.33;;;;;;;;;;5081846;28;20491;-82
2023/12/18 09:34:25;;;;;;;36.17;18.60;;;;;;;;;;5082327;28;20462;-81
2023/12/18 09:36:52;;;;;;;27.37;18.53;;;;;;;;;;5081849;28;20497;-81
2023/12/18 09:39:18;;;;;;;30.37;19.73;;;;;;;;;;5081347;28;20506;-81
2023/12/18 09:41:45;;;;;;;29.00;18.77;;;;;;;;;;5078407;28;20493;-80
2023/12/18 09:44:11;;;;;;;31.40;18.03;;;;;;;;;;5076544;28;20495;-81
2023/12/18 09:46:38;;;;;;;30.37;18.10;;;;;;;;;;5081995;28;20486;-81
2023/12/18 09:49:06;;;;;;;26.23;16.83;;;;;;;;;;5080151;28;20483;-81
2023/12/18 09:51:33;;;;;;;27.50;19.30;;;;;;;;;;5080895;28;20463;-80
2023/12/18 09:54:00;;;;;;;32.80;18.50;;;;;;;;;;5081065;28;20524;-80
2023/12/18 09:56:27;;;;;;;30.17;18.40;;;;;;;;;;5080875;28;20471;-80
2023/12/18 09:58:54;;;;;;;29.40;17.37;;;;;;;;;;5079315;28;20947;-81
2023/12/18 10:01:21;;;;;;;28.57;17.60;;;;;;;;;;5080716;28;20578;-82
2023/12/18 10:03:48;;;;;;;34.33;18.87;;;;;;;;;;5076488;28;20452;-80
2023/12/18 10:06:16;;;;;;;29.63;16.93;;;;;;;;;;5078685;28;20813;-81
2023/12/18 10:08:42;;;;;;;28.33;19.03;;;;;;;;;;5080366;28;20467;-81
2023/12/18 10:11:22;;;;;;;28.17;17.33;;;;;;;;;;5080621;28;21019;-82
2023/12/18 10:13:49;;;;;;;26.80;16.20;;;;;;;;;;5074685;28;20469;-81
2023/12/18 10:16:16;;;;;;;36.33;20.40;;;;;;;;;;5074788;28;20452;-80
2023/12/18 10:18:43;;;;;;;29.80;18.30;;;;;;;;;;5071090;28;20940;-80
2023/12/18 10:21:12;;;;;;;32.00;17.47;;;;;;;;;;5069785;28;20492;-81
2023/12/18 10:23:40;;;;;;;26.90;17.60;;;;;;;;;;5073312;28;20466;-81
2023/12/18 10:26:06;;;;;;;29.40;17.83;;;;;;;;;;5077204;28;20910;-80
2023/12/18 10:28:33;;;;;;;35.97;18.27;;;;;;;;;;5078276;28;20479;-82
2023/12/18 10:30:59;;;;;;;29.83;18.80;;;;;;;;;;5076694;28;20480;-85
2023/12/18 10:33:26;;;;;;;31.03;19.17;;;;;;;;;;5075050;28;20492;-86
2023/12/18 10:35:53;;;;;;;30.47;17.83;;;;;;;;;;5079511;28;20464;-88
2023/12/18 10:38:23;;;;;;;27.70;18.43;;;;;;;;;;5080860;28;20475;-85
2023/12/18 10:40:53;;;;;;;31.70;17.47;;;;;;;;;;5079298;28;20515;-85
2023/12/18 10:43:22;;;;;;;27.20;17.10;;;;;;;;;;5075827;28;20487;-83
2023/12/18 10:45:48;;;;;;;30.40;19.30;;;;;;;;;;5080200;28;20487;-86
2023/12/18 10:48:16;;;;;;;25.90;17.30;;;;;;;;;;5080873;28;20455;-83
2023/12/18 10:50:43;;;;;;;29.53;17.43;;;;;;;;;;5079270;28;20498;-86
2023/12/18 10:53:11;;;;;;;32.77;18.30;;;;;;;;;;5078581;28;20556;-85
2023/12/18 10:55:38;;;;;;;31.70;18.30;;;;;;;;;;5078629;28;20543;-86
2023/12/18 10:58:06;;;;;;;28.93;17.80;;;;;;;;;;5075893;28;20506;-85
2023/12/18 11:00:33;;;;;;;28.27;19.00;;;;;;;;;;5076028;28;20607;-84
2023/12/18 11:03:00;;;;;;;30.57;15.83;;;;;;;;;;5077957;28;20497;-84
2023/12/18 11:05:27;;;;;;;29.77;16.10;;;;;;;;;;5074293;28;20516;-85
2023/12/18 11:07:54;;;;;;;25.77;17.70;;;;;;;;;;5069446;28;20452;-86
2023/12/18 11:10:21;;;;;;;30.73;18.53;;;;;;;;;;5074077;28;20516;-84
2023/12/18 11:12:50;;;;;;;31.97;17.37;;;;;;;;;;5079924;28;20499;-86
2023/12/18 11:15:21;;;;;;;28.03;18.57;;;;;;;;;;5076466;28;20524;-87
2023/12/18 11:17:55;;;;;;;34.20;18.90;;;;;;;;;;5080140;28;20476;-86
2023/12/18 11:20:26;;;;;;;29.83;18.40;;;;;;;;;;5073168;28;20522;-84
2023/12/18 11:22:53;;;;;;;31.03;18.83;;;;;;;;;;5071775;28;20948;-87
2023/12/18 11:25:20;;;;;;;31.10;18.60;;;;;;;;;;5080011;28;20508;-87
2023/12/18 11:27:46;;;;;;;33.00;19.63;;;;;;;;;;5077442;28;20487;-85
2023/12/18 11:30:24;;;;;;;31.30;18.60;;;;;;;;;;5071495;28;20456;-87
2023/12/18 11:32:50;;;;;;;30.90;17.50;;;;;;;;;;5073654;28;20460;-87
2023/12/18 11:35:21;;;;;;;31.37;18.20;;;;;;;;;;5072392;28;20475;-86
2023/12/18 11:37:50;;;;;;;28.57;18.43;;;;;;;;;;5076460;28;20506;-87
2023/12/18 11:40:39;;;;;;;25.20;16.93;;;;;;;;;;5068319;28;20519;-87
2023/12/18 11:43:06;;;;;;;28.43;18.37;;;;;;;;;;5066610;28;20530;-86
2023/12/18 11:45:35;;;;;;;35.73;17.87;;;;;;;;;;5076017;28;20511;-85
2023/12/18 11:48:03;;;;;;;32.27;20.23;;;;;;;;;;5065082;28;20453;-85
2023/12/18 11:50:31;;;;;;;35.37;18.77;;;;;;;;;;5076757;28;20479;-84
2023/12/18 11:52:58;;;;;;;36.70;19.57;;;;;;;;;;5077681;28;20484;-85
2023/12/18 11:55:44;;;;;;;31.10;18.33;;;;;;;;;;5078253;28;20480;-85
2023/12/18 11:58:10;;;;;;;30.87;17.90;;;;;;;;;;5073189;28;20486;-83
2023/12/18 12:00:39;;;;;;;37.67;20.23;;;;;;;;;;5065900;28;20556;-84
2023/12/18 12:03:06;;;;;;;34.93;19.00;;;;;;;;;;5077430;28;20459;-86
2023/12/18 12:05:33;;;;;;;30.47;17.50;;;;;;;;;;5075386;28;20460;-83
2023/12/18 12:08:00;;;;;;;25.60;18.20;;;;;;;;;;5075416;28;20541;-83
2023/12/18 12:10:27;;;;;;;37.73;20.20;;;;;;;;;;5080064;28;20484;-85
2023/12/18 12:12:54;;;;;;;33.40;21.30;;;;;;;;;;5079225;28;20454;-85
2023/12/18 12:15:22;;;;;;;32.90;19.87;;;;;;;;;;5075937;28;20448;-84
2023/12/18 12:17:49;;;;;;;29.07;18.37;;;;;;;;;;5074249;28;20460;-85
2023/12/18 12:20:19;;;;;;;32.07;19.60;;;;;;;;;;5069241;28;20527;-83
2023/12/18 12:22:45;;;;;;;35.07;19.73;;;;;;;;;;5075492;28;20468;-85
2023/12/18 12:25:12;;;;;;;31.53;19.30;;;;;;;;;;5070998;28;21059;-86
2023/12/18 12:27:38;;;;;;;35.57;20.30;;;;;;;;;;5070242;28;20463;-85
2023/12/18 12:30:06;;;;;;;35.30;20.30;;;;;;;;;;5071211;28;20519;-86
2023/12/18 12:32:32;;;;;;;28.73;19.10;;;;;;;;;;5070543;28;20480;-86
2023/12/18 12:35:00;;;;;;;32.20;18.67;;;;;;;;;;5077003;28;20467;-85
2023/12/18 12:37:27;;;;;;;35.63;20.50;;;;;;;;;;5078063;28;20782;-86
2023/12/18 12:40:00;;;;;;;29.17;19.50;;;;;;;;;;5075307;28;21289;-86
2023/12/18 12:42:26;;;;;;;32.13;18.77;;;;;;;;;;5075699;28;20826;-87
2023/12/18 12:44:53;;;;;;;33.20;18.83;;;;;;;;;;5081382;28;20471;-86
2023/12/18 12:47:20;;;;;;;35.13;19.27;;;;;;;;;;5081683;28;20448;-86
2023/12/18 12:49:48;;;;;;;28.43;16.50;;;;;;;;;;5082629;28;20451;-87
2023/12/18 12:52:16;;;;;;;28.13;18.77;;;;;;;;;;5080529;28;20463;-84
2023/12/18 12:54:43;;;;;;;27.53;17.10;;;;;;;;;;5078835;28;20953;-85
2023/12/18 12:57:11;;;;;;;27.60;18.70;;;;;;;;;;5082439;28;20908;-86
2023/12/18 12:59:39;;;;;;;28.57;19.10;;;;;;;;;;5073307;28;20511;-85
2023/12/18 13:02:05;;;;;;;37.90;17.73;;;;;;;;;;5074974;28;20483;-87
2023/12/18 13:04:33;;;;;;;33.10;18.30;;;;;;;;;;5077626;28;20512;-86
2023/12/18 13:07:00;;;;;;;31.43;17.53;;;;;;;;;;5082395;28;20529;-87
2023/12/18 13:09:28;;;;;;;29.37;19.37;;;;;;;;;;5084145;28;20456;-86
2023/12/18 13:11:54;;;;;;;29.90;18.80;;;;;;;;;;5081369;28;20457;-86
2023/12/18 13:14:21;;;;;;;21.73;15.00;;;;;;;;;;5083933;28;20448;-86
2023/12/18 13:16:47;;;;;;;31.20;18.73;;;;;;;;;;5083377;28;20460;-86
2023/12/18 13:19:13;;;;;;;29.47;17.53;;;;;;;;;;5083402;28;20456;-84
2023/12/18 13:21:40;;;;;;;27.20;16.60;;;;;;;;;;5073806;28;20484;-85
2023/12/18 13:24:06;;;;;;;29.83;17.10;;;;;;;;;;5081334;28;20482;-86
2023/12/18 13:26:34;;;;;;;30.67;18.93;;;;;;;;;;5082845;28;20927;-83
2023/12/18 13:29:01;;;;;;;27.57;16.90;;;;;;;;;;5081765;28;20483;-83
2023/12/18 13:31:27;;;;;;;28.40;18.73;;;;;;;;;;5080817;28;20455;-85
2023/12/18 13:33:54;;;;;;;27.43;16.37;;;;;;;;;;5077441;28;20460;-83
2023/12/18 13:36:22;;;;;;;30.87;18.73;;;;;;;;;;5082242;28;20452;-86
2023/12/18 13:38:48;;;;;;;29.53;17.60;;;;;;;;;;5080166;28;20468;-86
2023/12/18 13:41:15;;;;;;;26.40;16.97;;;;;;;;;;5070841;28;21036;-84
2023/12/18 13:43:43;;;;;;;29.50;17.27;;;;;;;;;;5080634;28;20514;-87
2023/12/18 13:46:10;;;;;;;24.30;16.87;;;;;;;;;;5080905;28;20487;-88
2023/12/18 13:48:38;;;;;;;26.40;16.90;;;;;;;;;;5083274;28;21038;-88
2023/12/18 13:51:04;;;;;;;26.30;18.50;;;;;;;;;;5079915;28;20460;-83
2023/12/18 13:53:31;;;;;;;38.43;16.57;;;;;;;;;;5081611;28;20515;-83
2023/12/18 13:55:57;;;;;;;33.13;17.73;;;;;;;;;;5070864;28;20484;-88
2023/12/18 13:58:24;;;;;;;26.30;16.93;;;;;;;;;;5081540;28;20578;-87
2023/12/18 14:00:51;;;;;;;27.10;16.90;;;;;;;;;;5077453;28;20479;-85
2023/12/18 14:03:18;;;;;;;25.60;17.13;;;;;;;;;;5081067;28;20486;-88
2023/12/18 14:05:44;;;;;;;26.77;17.40;;;;;;;;;;5074864;28;20476;-86
2023/12/18 14:08:11;;;;;;;24.00;16.70;;;;;;;;;;5070944;28;20858;-86
2023/12/18 14:10:37;;;;;;;26.70;16.53;;;;;;;;;;5078480;28;20491;-87
2023/12/18 14:13:04;;;;;;;23.73;15.93;;;;;;;;;;5078467;28;20456;-85
2023/12/18 14:15:30;;;;;;;24.60;17.10;;;;;;;;;;5079663;28;20447;-86
2023/12/18 14:17:58;;;;;;;24.27;15.87;;;;;;;;;;5081077;28;20456;-88